Time;durP1;ratioP1;P1;durP2;ratioP2;P2;SDS_P1;SDS_P2;PMS_P1;PMS_P2;Temp;Humidity;BMP_temperature;BMP_pressure;BME280_temperature;BME280_humidity;BME280_pressure;Samples;Min_cycle;Max_cycle;Signal;HPM_P1;HPM_P2
2023/07/16 00:00:31;;;;;;;2.38;0.90;;;27.60;46.50;;;;;;6120293;29;20346;-75
2023/07/16 00:03:33;;;;;;;1.98;0.98;;;27.50;46.40;;;;;;6119757;29;20035;-76
2023/07/16 00:06:34;;;;;;;2.83;0.65;;;27.40;46.20;;;;;;6136014;29;20074;-75
2023/07/16 00:09:35;;;;;;;4.13;0.77;;;27.30;46.20;;;;;;6135752;29;20112;-76
2023/07/16 00:12:35;;;;;;;1.13;0.75;;;27.30;46.20;;;;;;6136403;28;20042;-77
2023/07/16 00:15:37;;;;;;;2.63;0.73;;;27.30;46.00;;;;;;6120516;29;20032;-75
2023/07/16 00:18:39;;;;;;;1.70;0.57;;;27.40;45.80;;;;;;6119992;29;20031;-75
2023/07/16 00:21:40;;;;;;;0.75;0.75;;;27.40;45.70;;;;;;6120718;29;20032;-75
2023/07/16 00:24:42;;;;;;;1.33;0.68;;;27.40;45.50;;;;;;6120154;29;20314;-75
2023/07/16 00:27:43;;;;;;;3.50;0.80;;;27.40;45.30;;;;;;6119611;29;20035;-77
2023/07/16 00:30:45;;;;;;;1.25;0.77;;;27.50;45.20;;;;;;6119394;29;20039;-75
2023/07/16 00:33:46;;;;;;;2.65;0.50;;;27.50;45.00;;;;;;6118266;29;20604;-78
2023/07/16 00:36:49;;;;;;;0.70;0.70;;;27.40;45.00;;;;;;6121018;29;20219;-75
2023/07/16 00:39:50;;;;;;;4.03;0.52;;;27.30;44.90;;;;;;6120080;29;20031;-75
2023/07/16 00:42:51;;;;;;;0.80;0.60;;;27.30;44.90;;;;;;6146122;28;20393;-76
2023/07/16 00:45:52;;;;;;;1.63;0.77;;;27.30;45.60;;;;;;6142857;28;20063;-76
2023/07/16 00:48:54;;;;;;;0.45;0.40;;;27.30;44.90;;;;;;6143459;29;20043;-78
2023/07/16 00:51:59;;;;;;;2.33;0.82;;;27.30;44.70;;;;;;6159877;28;20126;-78
2023/07/16 00:55:00;;;;;;;3.25;0.82;;;27.40;44.60;;;;;;6158576;28;20124;-76
2023/07/16 00:58:07;;;;;;;1.00;0.77;;;27.30;44.40;;;;;;6158560;28;20027;-75
2023/07/16 01:01:08;;;;;;;0.70;0.55;;;27.40;44.40;;;;;;6158585;28;20027;-75
2023/07/16 01:04:09;;;;;;;3.90;0.77;;;27.40;44.30;;;;;;6158499;28;20035;-78
2023/07/16 01:07:14;;;;;;;0.80;0.60;;;27.30;44.10;;;;;;6142898;29;20031;-75
2023/07/16 01:10:16;;;;;;;0.80;0.60;;;27.30;44.10;;;;;;6158327;28;20506;-77
2023/07/16 01:13:17;;;;;;;0.95;0.88;;;27.30;44.30;;;;;;6158996;28;20035;-76
2023/07/16 01:16:24;;;;;;;3.85;1.00;;;27.20;44.30;;;;;;6143272;28;20183;-76
2023/07/16 01:19:26;;;;;;;2.13;0.80;;;27.20;44.40;;;;;;6158331;28;20031;-76
2023/07/16 01:22:42;;;;;;;0.90;0.70;;;27.10;44.60;;;;;;6139010;28;20067;-76
2023/07/16 01:26:10;;;;;;;5.90;0.77;;;27.00;44.80;;;;;;6119342;29;20082;-76
2023/07/16 01:29:36;;;;;;;1.27;0.80;;;27.00;44.90;;;;;;6093616;29;20051;-76
2023/07/16 01:32:40;;;;;;;1.75;0.90;;;27.00;45.10;;;;;;6078404;29;20048;-76
2023/07/16 01:35:43;;;;;;;2.15;0.90;;;27.00;45.10;;;;;;6077586;29;20338;-76
2023/07/16 01:38:46;;;;;;;0.80;0.80;;;27.00;45.10;;;;;;6094007;29;20043;-75
2023/07/16 01:41:47;;;;;;;2.88;0.60;;;27.00;45.20;;;;;;6062569;29;20035;-76
2023/07/16 01:44:48;;;;;;;1.02;0.60;;;27.00;45.20;;;;;;6094463;29;20439;-77
2023/07/16 01:48:12;;;;;;;3.17;1.05;;;27.00;45.20;;;;;;6093051;29;20044;-75
2023/07/16 01:51:14;;;;;;;1.52;0.80;;;26.90;45.30;;;;;;6082478;29;20046;-76
2023/07/16 01:54:15;;;;;;;2.45;0.77;;;26.90;45.20;;;;;;6044585;29;20076;-75
2023/07/16 01:57:16;;;;;;;1.00;0.90;;;26.90;45.30;;;;;;6057623;29;20033;-76
2023/07/16 02:00:18;;;;;;;1.73;0.80;;;26.80;45.20;;;;;;6057439;29;20274;-76
2023/07/16 02:03:25;;;;;;;3.05;0.88;;;26.80;45.20;;;;;;6058746;29;20066;-77
2023/07/16 02:06:25;;;;;;;0.90;0.60;;;26.80;45.10;;;;;;6103153;29;20043;-77
2023/07/16 02:09:26;;;;;;;1.90;0.60;;;26.80;45.00;;;;;;6084026;29;20038;-77
2023/07/16 02:12:28;;;;;;;1.90;0.85;;;26.90;44.20;;;;;;6098677;29;20036;-76
2023/07/16 02:15:29;;;;;;;1.83;0.65;;;26.80;44.60;;;;;;6099588;29;20092;-76
2023/07/16 02:18:31;;;;;;;1.95;0.60;;;26.90;44.30;;;;;;6115542;29;20032;-76
2023/07/16 02:21:33;;;;;;;3.08;0.88;;;26.80;44.10;;;;;;6101423;29;20803;-76
2023/07/16 02:24:35;;;;;;;1.10;0.90;;;26.80;43.60;;;;;;6124485;29;20087;-75
2023/07/16 02:27:36;;;;;;;2.10;0.85;;;26.70;43.30;;;;;;6139855;29;20039;-76
2023/07/16 02:30:41;;;;;;;1.10;0.65;;;26.60;43.10;;;;;;6123491;29;20508;-76
2023/07/16 02:33:42;;;;;;;2.53;0.70;;;26.60;42.90;;;;;;6123144;29;20460;-77
2023/07/16 02:36:44;;;;;;;1.38;0.77;;;26.60;42.70;;;;;;6125309;29;20096;-76
2023/07/16 02:39:46;;;;;;;0.93;0.70;;;26.90;42.60;;;;;;6123531;28;20466;-76
2023/07/16 02:42:47;;;;;;;1.67;0.90;;;26.60;41.80;;;;;;6122883;29;20039;-76
2023/07/16 02:45:48;;;;;;;1.73;0.93;;;26.60;42.30;;;;;;6124602;29;20036;-78
2023/07/16 02:48:49;;;;;;;1.20;0.60;;;26.60;42.10;;;;;;6108252;29;20039;-77
2023/07/16 02:51:52;;;;;;;1.52;0.90;;;26.60;42.10;;;;;;6124656;29;20042;-76
2023/07/16 02:54:52;;;;;;;2.20;0.77;;;26.60;42.00;;;;;;6122388;29;20032;-77
2023/07/16 02:57:53;;;;;;;2.17;0.90;;;26.60;41.80;;;;;;6137858;29;20031;-77
2023/07/16 03:00:54;;;;;;;1.00;0.80;;;26.50;41.60;;;;;;6136745;28;20348;-75
2023/07/16 03:03:55;;;;;;;1.67;0.88;;;26.60;41.70;;;;;;6129591;29;20134;-76
2023/07/16 03:06:57;;;;;;;1.23;0.80;;;26.60;41.70;;;;;;6129588;29;20082;-78
2023/07/16 03:10:00;;;;;;;1.25;0.60;;;26.50;41.70;;;;;;6144758;28;20137;-76
2023/07/16 03:13:02;;;;;;;1.00;0.80;;;26.50;41.80;;;;;;6146461;29;20032;-77
2023/07/16 03:16:04;;;;;;;1.10;0.70;;;26.50;41.70;;;;;;6144869;28;20023;-77
2023/07/16 03:19:06;;;;;;;4.72;0.90;;;26.60;41.70;;;;;;6145070;29;20356;-75
2023/07/16 03:22:07;;;;;;;2.05;0.90;;;26.50;41.70;;;;;;6137700;28;20055;-77
2023/07/16 03:25:08;;;;;;;1.63;0.82;;;26.50;41.80;;;;;;6121869;29;20031;-79
2023/07/16 03:28:12;;;;;;;0.85;0.75;;;26.50;41.80;;;;;;6122072;29;20165;-76
2023/07/16 03:31:15;;;;;;;1.58;1.00;;;26.50;41.90;;;;;;6137623;29;20038;-77
2023/07/16 03:34:18;;;;;;;1.15;0.70;;;26.60;41.80;;;;;;6121971;29;20491;-76
2023/07/16 03:37:20;;;;;;;3.78;0.98;;;26.60;41.70;;;;;;6137736;29;20036;-76
2023/07/16 03:40:26;;;;;;;1.00;0.65;;;26.70;41.60;;;;;;6121377;29;20032;-76
2023/07/16 03:43:27;;;;;;;1.30;0.60;;;26.70;41.50;;;;;;6136833;28;20032;-76
2023/07/16 03:46:35;;;;;;;0.80;0.65;;;26.70;41.40;;;;;;6120994;29;20204;-76
2023/07/16 03:49:36;;;;;;;0.93;0.40;;;26.70;41.40;;;;;;6121449;29;20091;-76
2023/07/16 03:52:37;;;;;;;1.58;0.80;;;26.80;41.40;;;;;;6128632;29;20568;-77
2023/07/16 03:55:39;;;;;;;1.73;0.90;;;26.80;41.30;;;;;;6160653;28;20093;-76
2023/07/16 03:58:40;;;;;;;1.92;0.95;;;26.80;41.30;;;;;;6144376;29;20718;-76
2023/07/16 04:01:41;;;;;;;1.77;0.95;;;26.80;41.30;;;;;;6143929;28;20039;-76
2023/07/16 04:04:44;;;;;;;1.02;0.70;;;26.80;41.30;;;;;;6127543;28;20115;-76
2023/07/16 04:07:45;;;;;;;4.57;0.80;;;26.70;41.30;;;;;;6103296;29;20078;-77
2023/07/16 04:10:47;;;;;;;2.38;1.17;;;26.70;41.30;;;;;;6097374;29;20075;-76
2023/07/16 04:13:49;;;;;;;0.95;0.68;;;26.70;41.40;;;;;;6112195;29;20040;-77
2023/07/16 04:16:49;;;;;;;2.55;1.10;;;26.60;41.50;;;;;;6112757;29;20028;-77
2023/07/16 04:19:52;;;;;;;1.08;0.90;;;26.60;41.50;;;;;;6098176;29;20165;-76
2023/07/16 04:22:53;;;;;;;1.35;0.65;;;26.70;40.90;;;;;;6109531;29;20035;-77
2023/07/16 04:25:55;;;;;;;0.93;0.50;;;26.70;41.40;;;;;;6121676;29;20122;-76
2023/07/16 04:28:57;;;;;;;3.30;1.73;;;26.60;41.40;;;;;;6121835;29;20051;-76
2023/07/16 04:31:58;;;;;;;0.60;0.60;;;26.40;42.10;;;;;;6120724;29;20047;-77
2023/07/16 04:35:00;;;;;;;3.67;0.80;;;26.40;41.80;;;;;;6136252;29;20035;-77
2023/07/16 04:38:01;;;;;;;2.85;0.85;;;26.30;42.10;;;;;;6119423;29;20408;-77
2023/07/16 04:41:03;;;;;;;3.13;0.63;;;26.30;42.30;;;;;;6096301;29;20025;-76
2023/07/16 04:44:05;;;;;;;3.80;0.80;;;26.30;42.20;;;;;;6122024;29;20086;-76
2023/07/16 04:47:07;;;;;;;1.75;0.90;;;26.30;42.10;;;;;;6135251;28;20140;-76
2023/07/16 04:50:08;;;;;;;0.98;0.80;;;26.30;42.10;;;;;;6135755;28;20126;-75
2023/07/16 04:53:11;;;;;;;1.15;0.70;;;26.30;42.20;;;;;;6118803;29;20078;-75
2023/07/16 04:56:16;;;;;;;3.45;0.95;;;26.20;42.30;;;;;;6120790;29;20075;-76
2023/07/16 04:59:17;;;;;;;2.45;1.00;;;26.20;42.50;;;;;;6114769;29;20445;-76
2023/07/16 05:02:18;;;;;;;3.85;1.00;;;26.20;42.60;;;;;;6120201;29;20185;-76
2023/07/16 05:05:20;;;;;;;0.82;0.70;;;26.20;42.80;;;;;;6135530;28;20043;-75
2023/07/16 05:08:21;;;;;;;1.33;1.02;;;26.10;42.80;;;;;;6135533;28;20028;-77
2023/07/16 05:11:22;;;;;;;1.85;0.65;;;26.10;43.20;;;;;;6119010;29;20036;-76
2023/07/16 05:14:28;;;;;;;4.85;0.90;;;26.00;43.40;;;;;;6118907;29;20643;-77
2023/07/16 05:17:30;;;;;;;1.52;0.93;;;25.90;43.60;;;;;;6119263;29;20047;-76
2023/07/16 05:20:31;;;;;;;2.33;0.93;;;25.90;43.70;;;;;;6119565;29;20050;-76
2023/07/16 05:23:32;;;;;;;1.70;0.88;;;25.90;43.80;;;;;;6134000;29;20039;-76
2023/07/16 05:26:33;;;;;;;3.90;1.20;;;25.90;44.00;;;;;;6119070;29;20040;-75
2023/07/16 05:29:34;;;;;;;3.00;0.80;;;25.90;44.00;;;;;;6118917;29;20035;-77
2023/07/16 05:32:35;;;;;;;1.23;0.90;;;25.90;44.20;;;;;;6119892;29;20213;-77
2023/07/16 05:35:38;;;;;;;4.30;0.80;;;25.80;44.30;;;;;;6135611;28;20035;-76
2023/07/16 05:38:39;;;;;;;2.63;0.88;;;25.80;44.60;;;;;;6135040;29;20358;-77
2023/07/16 05:41:41;;;;;;;1.75;0.93;;;25.80;44.80;;;;;;6120649;29;20563;-76
2023/07/16 05:44:44;;;;;;;1.75;0.85;;;25.80;44.40;;;;;;6120563;29;20142;-75
2023/07/16 05:47:45;;;;;;;1.60;0.70;;;25.80;44.90;;;;;;6119708;29;20028;-76
2023/07/16 05:50:46;;;;;;;2.40;1.05;;;25.90;44.90;;;;;;6142623;28;20447;-75
2023/07/16 05:53:47;;;;;;;1.65;0.98;;;26.00;44.80;;;;;;6123151;28;20142;-76
2023/07/16 05:56:48;;;;;;;3.30;0.90;;;26.10;44.60;;;;;;6102473;29;20452;-76
2023/07/16 05:59:50;;;;;;;5.53;1.10;;;26.20;44.40;;;;;;6135000;29;20027;-76
2023/07/16 06:02:52;;;;;;;3.00;1.00;;;26.20;44.30;;;;;;6134450;29;20036;-76
2023/07/16 06:05:53;;;;;;;1.05;0.73;;;26.30;44.30;;;;;;6109135;29;20039;-76
2023/07/16 06:08:54;;;;;;;4.45;0.90;;;26.30;44.50;;;;;;6096215;29;20032;-76
2023/07/16 06:11:55;;;;;;;0.77;0.60;;;26.30;44.20;;;;;;6110349;29;20073;-75
2023/07/16 06:14:56;;;;;;;2.05;0.90;;;26.30;44.20;;;;;;6126875;28;20039;-78
2023/07/16 06:17:59;;;;;;;2.28;1.15;;;26.30;44.10;;;;;;6120241;29;20031;-76
2023/07/16 06:21:01;;;;;;;3.17;1.10;;;26.30;44.30;;;;;;6120399;29;20035;-76
2023/07/16 06:24:03;;;;;;;2.13;1.00;;;26.30;44.10;;;;;;6133937;29;20032;-78
2023/07/16 06:27:04;;;;;;;1.55;1.00;;;26.50;44.00;;;;;;6126606;28;20804;-76
2023/07/16 06:30:06;;;;;;;1.30;0.85;;;26.50;43.60;;;;;;6119085;29;20111;-77
2023/07/16 06:33:07;;;;;;;1.15;0.85;;;26.70;43.50;;;;;;6120464;29;20051;-76
2023/07/16 06:36:09;;;;;;;2.22;1.10;;;26.80;43.40;;;;;;6106853;29;20055;-74
2023/07/16 06:39:15;;;;;;;1.65;0.88;;;26.80;43.50;;;;;;6125410;28;20039;-78
2023/07/16 06:42:18;;;;;;;1.25;0.70;;;26.80;43.50;;;;;;6122696;29;20118;-76
2023/07/16 06:45:19;;;;;;;1.02;0.80;;;26.70;43.50;;;;;;6106771;29;20040;-77
2023/07/16 06:48:21;;;;;;;2.40;1.10;;;26.70;43.50;;;;;;6124228;28;20091;-77
2023/07/16 06:51:22;;;;;;;2.78;1.15;;;26.70;43.60;;;;;;6122350;29;20130;-76
2023/07/16 06:54:24;;;;;;;3.08;1.00;;;26.70;43.50;;;;;;6139014;28;20136;-75
2023/07/16 06:57:26;;;;;;;1.48;0.88;;;26.90;43.30;;;;;;6123733;29;20040;-77
2023/07/16 07:00:27;;;;;;;1.13;0.75;;;27.20;43.10;;;;;;6122494;29;20035;-77
2023/07/16 07:03:29;;;;;;;2.97;1.25;;;27.30;42.80;;;;;;6123416;29;20035;-77
2023/07/16 07:06:30;;;;;;;2.28;1.15;;;27.50;42.50;;;;;;6122124;29;20044;-77
2023/07/16 07:09:36;;;;;;;3.67;1.27;;;27.80;42.10;;;;;;6123960;29;20031;-76
2023/07/16 07:12:37;;;;;;;3.03;1.00;;;28.00;41.70;;;;;;6122783;29;20333;-76
2023/07/16 07:15:38;;;;;;;2.20;0.60;;;28.20;41.30;;;;;;6122589;29;20036;-76
2023/07/16 07:18:40;;;;;;;3.85;0.98;;;28.20;41.10;;;;;;6123601;29;20463;-76
2023/07/16 07:21:42;;;;;;;2.67;0.98;;;28.20;41.20;;;;;;6122776;29;20456;-75
2023/07/16 07:24:44;;;;;;;1.77;0.90;;;28.10;41.10;;;;;;6121885;29;20079;-77
2023/07/16 07:27:45;;;;;;;5.05;1.10;;;28.10;41.10;;;;;;6121937;29;20042;-76
2023/07/16 07:30:46;;;;;;;1.25;0.85;;;28.10;41.00;;;;;;6121870;29;20043;-76
2023/07/16 07:33:47;;;;;;;1.85;0.90;;;28.20;40.80;;;;;;6137826;29;20392;-78
2023/07/16 07:36:48;;;;;;;2.67;1.08;;;28.20;40.70;;;;;;6121617;29;20198;-77
2023/07/16 07:39:53;;;;;;;4.63;1.10;;;28.30;40.70;;;;;;6121059;29;20035;-77
2023/07/16 07:42:55;;;;;;;2.13;1.00;;;28.40;40.60;;;;;;6121983;29;20464;-77
2023/07/16 07:45:56;;;;;;;2.17;1.02;;;28.10;40.30;;;;;;6136451;28;20172;-76
2023/07/16 07:48:57;;;;;;;1.73;0.80;;;28.40;40.50;;;;;;6120997;29;20040;-76
2023/07/16 07:51:58;;;;;;;2.05;1.10;;;28.50;40.50;;;;;;6122449;29;20135;-77
2023/07/16 07:54:59;;;;;;;3.17;1.00;;;28.60;40.30;;;;;;6137150;29;20043;-77
2023/07/16 07:58:00;;;;;;;1.98;0.88;;;28.70;40.00;;;;;;6131239;29;20547;-78
2023/07/16 08:01:06;;;;;;;1.52;0.90;;;29.00;39.80;;;;;;6138657;29;20047;-79
2023/07/16 08:04:06;;;;;;;1.92;0.95;;;29.00;39.60;;;;;;6138143;29;20477;-78
2023/07/16 08:07:08;;;;;;;2.35;1.05;;;29.10;39.50;;;;;;6128969;29;20050;-76
2023/07/16 08:10:09;;;;;;;2.10;1.17;;;29.30;39.30;;;;;;6154858;29;20055;-77
2023/07/16 08:13:10;;;;;;;3.20;0.98;;;29.40;39.10;;;;;;6155999;29;20124;-77
2023/07/16 08:16:11;;;;;;;2.03;0.93;;;29.60;39.00;;;;;;6137486;29;20114;-76
2023/07/16 08:19:12;;;;;;;1.40;1.00;;;29.70;38.70;;;;;;6116964;29;20058;-75
2023/07/16 08:22:13;;;;;;;1.65;0.93;;;29.70;38.50;;;;;;6135949;29;20123;-78
2023/07/16 08:25:14;;;;;;;3.45;1.02;;;29.80;38.40;;;;;;6146095;29;20039;-76
2023/07/16 08:28:16;;;;;;;0.90;0.80;;;29.80;38.20;;;;;;6126139;29;20043;-78
2023/07/16 08:31:19;;;;;;;3.50;1.02;;;29.80;38.20;;;;;;6126544;29;20039;-77
2023/07/16 08:34:21;;;;;;;1.45;0.90;;;29.70;38.30;;;;;;6124458;29;20059;-75
2023/07/16 08:37:23;;;;;;;2.47;0.95;;;29.80;38.30;;;;;;6133657;29;20023;-76
2023/07/16 08:40:24;;;;;;;1.67;0.80;;;29.80;38.10;;;;;;6150847;28;20035;-75
2023/07/16 08:43:26;;;;;;;1.88;1.08;;;29.90;37.90;;;;;;6144614;28;20038;-78
2023/07/16 08:46:28;;;;;;;0.95;0.90;;;30.00;37.90;;;;;;6101070;29;20319;-77
2023/07/16 08:49:31;;;;;;;2.05;1.00;;;30.20;37.90;;;;;;6098515;29;20282;-77
2023/07/16 08:52:33;;;;;;;5.50;1.08;;;30.30;37.80;;;;;;6110865;29;20062;-77
2023/07/16 08:55:38;;;;;;;3.38;1.10;;;30.30;37.40;;;;;;6120858;29;20035;-77
2023/07/16 08:58:40;;;;;;;2.63;1.02;;;30.30;37.80;;;;;;6105040;29;20429;-77
2023/07/16 09:01:41;;;;;;;1.83;0.90;;;30.30;37.80;;;;;;6121134;29;20046;-76
2023/07/16 09:04:48;;;;;;;0.90;0.80;;;30.30;37.90;;;;;;6121828;29;20035;-77
2023/07/16 09:07:50;;;;;;;4.80;1.25;;;30.20;38.70;;;;;;6137356;28;20042;-77
2023/07/16 09:10:56;;;;;;;6.80;0.90;;;30.20;38.10;;;;;;6136523;29;20464;-78
2023/07/16 09:13:57;;;;;;;1.38;1.17;;;30.10;38.20;;;;;;6136461;29;20036;-78
2023/07/16 09:17:00;;;;;;;1.13;0.88;;;30.20;38.50;;;;;;6122552;29;20043;-77
2023/07/16 09:20:02;;;;;;;1.98;1.20;;;30.20;38.40;;;;;;6136604;29;20091;-77
2023/07/16 09:23:03;;;;;;;3.38;1.08;;;30.20;38.40;;;;;;6136183;29;20139;-75
2023/07/16 09:26:04;;;;;;;1.00;0.90;;;30.30;38.40;;;;;;6137039;29;20396;-76
2023/07/16 09:29:08;;;;;;;2.95;1.10;;;30.30;38.30;;;;;;6120991;29;20063;-76
2023/07/16 09:32:10;;;;;;;3.53;1.02;;;30.30;38.30;;;;;;6119537;29;20074;-78
2023/07/16 09:35:15;;;;;;;1.42;0.90;;;30.40;38.20;;;;;;6139216;28;20039;-78
2023/07/16 09:38:17;;;;;;;3.38;1.13;;;30.40;38.20;;;;;;6129884;29;20422;-78
2023/07/16 09:41:19;;;;;;;1.48;1.10;;;30.40;38.20;;;;;;6119162;28;20032;-77
2023/07/16 09:44:20;;;;;;;1.20;0.90;;;30.50;38.10;;;;;;6120887;29;20028;-78
2023/07/16 09:47:21;;;;;;;2.00;1.30;;;30.50;37.90;;;;;;6108136;29;20470;-77
2023/07/16 09:50:27;;;;;;;1.70;1.30;;;30.50;37.90;;;;;;6139642;28;20031;-77
2023/07/16 09:53:32;;;;;;;3.53;1.15;;;30.50;37.90;;;;;;6106957;29;20070;-77
2023/07/16 09:56:49;;;;;;;1.00;1.00;;;30.50;38.00;;;;;;6113546;29;20404;-77
2023/07/16 09:59:53;;;;;;;1.10;1.00;;;30.60;37.90;;;;;;6101946;29;20074;-76
2023/07/16 10:02:55;;;;;;;2.22;1.35;;;30.80;37.60;;;;;;6116839;29;20036;-78
2023/07/16 10:06:06;;;;;;;1.83;0.90;;;30.90;37.40;;;;;;6101696;29;20063;-76
2023/07/16 10:09:07;;;;;;;3.30;1.20;;;30.90;37.30;;;;;;6118233;29;20028;-76
2023/07/16 10:12:18;;;;;;;3.10;1.10;;;31.10;37.20;;;;;;6120373;29;20032;-78
2023/07/16 10:15:28;;;;;;;1.45;1.08;;;31.20;37.10;;;;;;6122811;29;20108;-77
2023/07/16 10:18:31;;;;;;;0.98;0.88;;;31.40;37.00;;;;;;6106340;29;20039;-76
2023/07/16 10:21:38;;;;;;;2.63;1.33;;;31.40;36.90;;;;;;6124908;29;20032;-77
2023/07/16 10:24:40;;;;;;;1.50;1.05;;;31.40;36.80;;;;;;6132910;29;20055;-76
2023/07/16 10:27:41;;;;;;;2.65;1.00;;;32.00;37.00;;;;;;6146697;29;20135;-79
2023/07/16 10:30:42;;;;;;;1.63;1.17;;;31.40;36.90;;;;;;6133746;29;20031;-76
2023/07/16 10:33:59;;;;;;;1.40;1.15;;;31.30;36.90;;;;;;6141091;29;20039;-77
2023/07/16 10:37:00;;;;;;;2.10;0.90;;;31.40;37.00;;;;;;6160483;28;20122;-79
2023/07/16 10:40:05;;;;;;;2.83;0.90;;;31.60;36.60;;;;;;6171562;28;20031;-76
2023/07/16 10:43:07;;;;;;;1.45;1.02;;;31.80;36.30;;;;;;6157133;28;20042;-77
2023/07/16 10:46:09;;;;;;;4.15;0.90;;;31.70;36.10;;;;;;6169034;28;20038;-78
2023/07/16 10:49:11;;;;;;;1.85;1.15;;;31.80;36.30;;;;;;6167260;28;20514;-77
2023/07/16 10:52:12;;;;;;;2.42;0.80;;;31.80;36.20;;;;;;6170470;28;20042;-78
2023/07/16 10:55:13;;;;;;;6.28;1.13;;;31.80;36.20;;;;;;6169568;28;20027;-79
2023/07/16 10:58:15;;;;;;;1.92;0.93;;;31.80;36.20;;;;;;6172171;28;20503;-77
2023/07/16 11:01:17;;;;;;;1.40;1.02;;;31.70;36.20;;;;;;6156986;29;20090;-79
2023/07/16 11:04:20;;;;;;;2.83;1.13;;;31.60;36.20;;;;;;6158538;28;20177;-77
2023/07/16 11:07:22;;;;;;;2.20;0.90;;;31.70;36.30;;;;;;6152275;28;20031;-78
2023/07/16 11:10:24;;;;;;;2.67;1.17;;;31.90;36.00;;;;;;6169789;28;20062;-79
2023/07/16 11:13:33;;;;;;;2.88;1.17;;;32.50;35.20;;;;;;6168761;28;20113;-78
2023/07/16 11:16:40;;;;;;;4.90;1.05;;;33.00;34.40;;;;;;6164851;28;20066;-78
2023/07/16 11:19:44;;;;;;;4.10;1.23;;;33.50;33.50;;;;;;6171078;28;20035;-79
2023/07/16 11:22:47;;;;;;;3.30;1.10;;;33.90;32.90;;;;;;6143564;28;20038;-78
2023/07/16 11:25:49;;;;;;;1.05;0.80;;;34.40;32.30;;;;;;6137076;29;20149;-80
2023/07/16 11:28:52;;;;;;;3.80;1.20;;;34.80;31.70;;;;;;6157929;28;20054;-78
2023/07/16 11:31:53;;;;;;;1.92;1.10;;;35.00;31.00;;;;;;6156414;28;20038;-78
2023/07/16 11:34:57;;;;;;;2.17;1.10;;;35.20;31.00;;;;;;6154309;29;20058;-78
2023/07/16 11:37:59;;;;;;;2.05;1.20;;;35.30;30.80;;;;;;6152843;28;20035;-79
2023/07/16 11:41:01;;;;;;;4.85;0.90;;;35.70;30.50;;;;;;6157380;28;20042;-77
2023/07/16 11:44:02;;;;;;;2.13;1.30;;;35.80;30.10;;;;;;6146028;28;20032;-78
2023/07/16 11:47:04;;;;;;;4.00;1.30;;;36.00;29.80;;;;;;6152184;29;20098;-77
2023/07/16 11:50:05;;;;;;;7.45;1.17;;;36.30;29.70;;;;;;6154240;28;20036;-77
2023/07/16 11:53:06;;;;;;;7.65;1.30;;;36.50;29.30;;;;;;6169822;28;20093;-79
2023/07/16 11:56:08;;;;;;;1.70;1.10;;;36.80;29.00;;;;;;6167915;28;20045;-76
2023/07/16 11:59:08;;;;;;;2.60;1.40;;;37.00;28.70;;;;;;6150181;29;20055;-76
2023/07/16 12:02:11;;;;;;;2.83;1.13;;;37.20;28.50;;;;;;6149226;29;20106;-78
2023/07/16 12:05:12;;;;;;;5.72;1.00;;;37.30;28.50;;;;;;6167198;28;20027;-77
2023/07/16 12:08:14;;;;;;;2.45;1.42;;;37.60;28.20;;;;;;6156027;28;20035;-78
2023/07/16 12:11:15;;;;;;;4.40;1.20;;;37.80;27.90;;;;;;6169853;28;20125;-78
2023/07/16 12:14:17;;;;;;;2.03;1.30;;;37.80;27.60;;;;;;6148614;28;20123;-78
2023/07/16 12:17:18;;;;;;;4.05;0.90;;;37.60;28.10;;;;;;6145573;28;20031;-76
2023/07/16 12:20:19;;;;;;;2.17;1.10;;;37.50;27.80;;;;;;6144976;29;20030;-75
2023/07/16 12:23:21;;;;;;;3.28;1.08;;;37.50;27.70;;;;;;6158898;28;20058;-78
2023/07/16 12:26:25;;;;;;;2.53;1.10;;;37.40;27.80;;;;;;6145744;28;20051;-79
2023/07/16 12:29:27;;;;;;;2.65;1.25;;;37.60;27.60;;;;;;6161759;28;20067;-79
2023/07/16 12:32:31;;;;;;;3.20;1.13;;;37.80;27.40;;;;;;6145427;28;20098;-77
2023/07/16 12:35:38;;;;;;;3.63;1.20;;;37.90;27.30;;;;;;6162186;28;20389;-78
2023/07/16 12:38:43;;;;;;;1.60;0.80;;;37.90;27.30;;;;;;6146104;28;20027;-78
2023/07/16 12:41:46;;;;;;;2.40;0.90;;;38.20;27.00;;;;;;6155942;28;20333;-78
2023/07/16 12:45:19;;;;;;;2.50;1.20;;;38.50;26.70;;;;;;6169162;23;20039;-78
2023/07/16 12:48:25;;;;;;;4.00;1.10;;;38.70;26.30;;;;;;6147943;28;20252;-78
2023/07/16 12:51:30;;;;;;;3.78;1.23;;;38.50;26.10;;;;;;6145273;29;20027;-78
2023/07/16 12:54:33;;;;;;;4.82;0.93;;;38.40;26.30;;;;;;6147360;28;20130;-77
2023/07/16 12:57:54;;;;;;;3.72;1.05;;;38.60;26.10;;;;;;6145787;29;20106;-79
2023/07/16 13:01:03;;;;;;;6.80;1.73;;;38.80;25.90;;;;;;6145626;29;20066;-78
2023/07/16 13:04:39;;;;;;;;;;;;;;;;;;;;;
2023/07/16 13:09:04;;;;;;;4.40;0.95;;;39.10;25.30;;;;;;6145291;28;20050;-78
2023/07/16 13:12:12;;;;;;;4.03;1.15;;;39.50;25.00;;;;;;6087457;29;20044;-77
2023/07/16 13:15:31;;;;;;;2.33;1.05;;;39.90;24.70;;;;;;6102565;29;20321;-77
2023/07/16 13:18:49;;;;;;;4.43;0.90;;;40.30;24.50;;;;;;6119646;29;20146;-78
2023/07/16 13:22:00;;;;;;;2.15;0.90;;;40.90;24.00;;;;;;6117448;29;20070;-76
2023/07/16 13:25:06;;;;;;;3.15;0.90;;;41.00;23.60;;;;;;6102927;29;20043;-77
2023/07/16 13:28:08;;;;;;;5.00;1.20;;;41.20;23.30;;;;;;6102031;29;20107;-77
2023/07/16 13:31:12;;;;;;;2.95;1.30;;;41.20;23.30;;;;;;6102720;29;20043;-76
2023/07/16 13:43:22;;;;;;;2.63;1.13;;;42.40;22.30;;;;;;6001934;29;20052;-79
2023/07/16 13:50:56;;;;;;;4.85;1.08;;;42.70;21.50;;;;;;5961568;29;20042;-77
2023/07/16 13:53:58;;;;;;;2.38;0.90;;;43.50;21.10;;;;;;5961837;29;20038;-78
2023/07/16 13:56:59;;;;;;;1.63;0.95;;;43.30;21.00;;;;;;5946185;29;20538;-77
2023/07/16 14:00:01;;;;;;;4.78;1.35;;;43.30;21.20;;;;;;5945946;29;20126;-78
2023/07/16 14:03:02;;;;;;;3.83;1.20;;;43.80;20.90;;;;;;5947134;29;20035;-77
2023/07/16 14:06:05;;;;;;;6.43;1.25;;;44.20;20.40;;;;;;5947603;29;20532;-78
2023/07/16 14:09:07;;;;;;;4.55;1.10;;;44.10;20.30;;;;;;5961107;29;20046;-78
2023/07/16 14:12:12;;;;;;;5.10;1.08;;;44.30;20.30;;;;;;5967521;29;20103;-78
2023/07/16 14:15:13;;;;;;;2.38;1.30;;;44.50;20.10;;;;;;5966604;29;20119;-78
2023/07/16 14:18:14;;;;;;;3.58;1.35;;;44.50;20.00;;;;;;5993283;29;20547;-78
2023/07/16 14:21:15;;;;;;;3.83;1.30;;;44.20;20.00;;;;;;6090798;29;20039;-80
2023/07/16 14:24:17;;;;;;;2.25;1.00;;;44.00;20.00;;;;;;6066531;29;20036;-78
2023/07/16 14:27:22;;;;;;;2.22;1.00;;;43.80;20.20;;;;;;6138701;29;20054;-78
2023/07/16 14:30:27;;;;;;;2.83;1.08;;;43.60;20.40;;;;;;6139894;29;20031;-78
2023/07/16 14:33:27;;;;;;;2.63;1.15;;;43.90;20.20;;;;;;6138254;29;20051;-79
2023/07/16 14:36:29;;;;;;;3.75;1.27;;;44.30;20.00;;;;;;6145860;28;20031;-77
2023/07/16 14:39:31;;;;;;;2.90;1.10;;;44.90;20.10;;;;;;6137845;29;20027;-77
2023/07/16 14:42:33;;;;;;;1.92;1.13;;;44.90;19.40;;;;;;6148361;29;20031;-77
2023/07/16 14:45:35;;;;;;;3.90;1.02;;;45.00;19.40;;;;;;6161669;28;20062;-79
2023/07/16 14:48:36;;;;;;;2.78;1.27;;;45.00;19.30;;;;;;6153763;29;20042;-78
2023/07/16 14:52:02;;;;;;;4.55;1.10;;;44.90;19.30;;;;;;6149323;29;20035;-78
2023/07/16 14:55:45;;;;;;;3.03;1.35;;;44.90;19.50;;;;;;6136704;28;20027;-76
2023/07/16 15:29:34;;;;;;;4.13;0.82;;;39.70;23.40;;;;;;6152383;29;20098;-77
2023/07/16 15:37:02;;;;;;;3.20;1.10;;;40.70;22.50;;;;;;6157330;29;20027;-77
2023/07/16 15:48:49;;;;;;;3.60;1.20;;;42.90;21.20;;;;;;6174584;28;20042;-78
2023/07/16 15:51:51;;;;;;;1.23;1.05;;;43.30;20.80;;;;;;6138561;29;20462;-77
2023/07/16 15:54:52;;;;;;;4.20;1.20;;;43.40;20.70;;;;;;6154402;28;20039;-77
2023/07/16 15:57:54;;;;;;;5.20;1.20;;;43.00;20.80;;;;;;6152462;28;20031;-77
2023/07/16 16:00:58;;;;;;;0.93;0.80;;;42.50;21.20;;;;;;6151097;29;20024;-77
2023/07/16 16:04:00;;;;;;;6.03;1.77;;;42.30;21.50;;;;;;6149115;28;20089;-77
2023/07/16 16:07:03;;;;;;;2.85;1.38;;;42.20;21.50;;;;;;6149531;28;20042;-76
2023/07/16 16:10:21;;;;;;;1.65;1.20;;;42.40;21.40;;;;;;6150610;28;20047;-76
2023/07/16 16:13:27;;;;;;;4.03;1.30;;;42.60;21.30;;;;;;6128797;29;20040;-77
2023/07/16 16:16:28;;;;;;;2.83;1.30;;;42.70;21.20;;;;;;6111610;29;20030;-77
2023/07/16 16:19:34;;;;;;;4.93;1.50;;;42.60;21.20;;;;;;6107798;29;20122;-76
2023/07/16 16:22:35;;;;;;;6.15;1.05;;;42.60;21.20;;;;;;6136744;29;20580;-76
2023/07/16 16:25:36;;;;;;;7.07;1.10;;;42.40;21.30;;;;;;6136113;29;20049;-77
2023/07/16 16:28:45;;;;;;;1.73;1.10;;;42.30;21.50;;;;;;6368737;27;20743;-76
2023/07/16 16:31:46;;;;;;;3.90;1.20;;;42.20;21.50;;;;;;6348956;27;20137;-77
2023/07/16 16:34:48;;;;;;;1.33;1.02;;;42.00;21.70;;;;;;6341672;28;20368;-76
2023/07/16 16:37:49;;;;;;;3.10;1.33;;;41.70;21.80;;;;;;6340290;28;20043;-75
2023/07/16 16:40:51;;;;;;;3.90;1.15;;;41.10;22.30;;;;;;6340510;28;20027;-76
2023/07/16 16:43:54;;;;;;;2.85;1.08;;;40.30;22.90;;;;;;6327632;28;20036;-78
2023/07/16 16:46:59;;;;;;;1.83;1.00;;;39.70;23.50;;;;;;6343783;28;20028;-76
2023/07/16 16:50:00;;;;;;;1.88;0.70;;;39.60;23.70;;;;;;6343726;28;20139;-76
2023/07/16 16:53:02;;;;;;;1.55;1.05;;;39.70;23.70;;;;;;6345752;28;20514;-78